Time;durP1;ratioP1;P1;durP2;ratioP2;P2;SDS_P1;SDS_P2;PMS_P1;PMS_P2;Temp;Humidity;BMP_temperature;BMP_pressure;BME280_temperature;BME280_humidity;BME280_pressure;Samples;Min_cycle;Max_cycle;Signal;HPM_P1;HPM_P2
2023/09/03 00:02:00;;;;;;;8.32;3.92;;;28.70;49.20;;;;;;5050817;28;20083;-69
2023/09/03 00:04:26;;;;;;;6.85;4.20;;;28.90;49.20;;;;;;5051933;28;20037;-69
2023/09/03 00:06:53;;;;;;;6.80;4.30;;;28.70;49.20;;;;;;5051763;28;20416;-70
2023/09/03 00:09:19;;;;;;;6.38;4.68;;;28.80;49.20;;;;;;5051748;28;20127;-69
2023/09/03 00:11:45;;;;;;;8.13;3.72;;;28.80;49.20;;;;;;5051486;28;20029;-69
2023/09/03 00:14:11;;;;;;;11.93;4.50;;;28.90;49.20;;;;;;5051912;28;20037;-69
2023/09/03 00:16:37;;;;;;;10.20;3.90;;;28.80;49.20;;;;;;5033951;28;20071;-69
2023/09/03 00:19:03;;;;;;;8.05;4.32;;;28.90;49.30;;;;;;5051641;28;20114;-69
2023/09/03 00:21:29;;;;;;;7.93;3.80;;;28.80;49.20;;;;;;5051654;28;20083;-69
2023/09/03 00:23:55;;;;;;;8.32;3.90;;;28.80;49.20;;;;;;5051318;28;20060;-68
2023/09/03 00:26:21;;;;;;;6.57;3.90;;;28.70;49.20;;;;;;5051653;28;20025;-69
2023/09/03 00:28:54;;;;;;;5.68;3.88;;;28.80;49.20;;;;;;5033697;28;20045;-69
2023/09/03 00:31:23;;;;;;;8.63;3.65;;;28.90;49.20;;;;;;5051305;28;20159;-69
2023/09/03 00:33:53;;;;;;;7.90;4.07;;;28.80;49.20;;;;;;5050129;28;20053;-69
2023/09/03 00:36:19;;;;;;;4.13;3.38;;;28.80;49.20;;;;;;5051641;28;20182;-69
2023/09/03 00:38:49;;;;;;;11.63;4.28;;;28.80;49.20;;;;;;5068419;28;20099;-69
2023/09/03 00:41:15;;;;;;;7.72;3.72;;;28.90;49.20;;;;;;5071298;28;20063;-69
2023/09/03 00:43:42;;;;;;;5.88;3.35;;;28.90;49.20;;;;;;5053127;28;20480;-69
2023/09/03 00:46:08;;;;;;;4.72;3.80;;;28.70;49.20;;;;;;5071281;28;20040;-70
2023/09/03 00:48:36;;;;;;;5.78;3.65;;;28.80;49.20;;;;;;5068450;28;20044;-69
2023/09/03 00:51:07;;;;;;;9.50;3.55;;;28.80;49.30;;;;;;5068761;28;20175;-69
2023/09/03 00:53:35;;;;;;;6.03;3.88;;;28.80;49.30;;;;;;5051920;28;20040;-69
2023/09/03 00:56:02;;;;;;;5.32;3.90;;;28.80;49.30;;;;;;5051992;28;20472;-68
2023/09/03 00:58:28;;;;;;;7.20;3.92;;;28.70;49.30;;;;;;5051879;28;20064;-69
2023/09/03 01:00:55;;;;;;;6.10;3.20;;;28.70;49.30;;;;;;5068371;28;20029;-69
2023/09/03 01:03:22;;;;;;;10.25;4.05;;;28.80;49.30;;;;;;5051890;28;20047;-69
2023/09/03 01:05:49;;;;;;;7.05;3.55;;;28.60;49.30;;;;;;5035052;28;20090;-69
2023/09/03 01:08:15;;;;;;;4.90;3.53;;;28.80;49.30;;;;;;5051645;28;20062;-68
2023/09/03 01:11:06;;;;;;;12.25;4.32;;;28.70;49.40;;;;;;5072596;28;20048;-69
2023/09/03 01:13:57;;;;;;;5.30;3.40;;;28.80;49.30;;;;;;5015042;28;20037;-69
2023/09/03 01:16:34;;;;;;;5.80;3.72;;;28.70;49.30;;;;;;5015404;28;20030;-69
2023/09/03 01:19:21;;;;;;;4.75;2.90;;;28.80;49.30;;;;;;5015304;28;20038;-69
2023/09/03 01:21:54;;;;;;;5.88;4.00;;;28.80;49.30;;;;;;5015110;28;20061;-69
2023/09/03 01:24:46;;;;;;;6.95;3.75;;;28.70;49.40;;;;;;4998716;28;20081;-69
2023/09/03 01:27:34;;;;;;;9.05;3.95;;;28.80;49.40;;;;;;5015237;28;20034;-69
2023/09/03 01:30:02;;;;;;;7.90;3.97;;;28.70;49.40;;;;;;4998874;28;20042;-69
2023/09/03 01:32:28;;;;;;;8.88;3.75;;;28.70;49.30;;;;;;5015209;28;20037;-69
2023/09/03 01:34:55;;;;;;;6.43;3.25;;;28.80;49.30;;;;;;4966291;28;20054;-69
2023/09/03 01:37:22;;;;;;;6.82;3.47;;;28.80;49.30;;;;;;4998829;28;20041;-69
2023/09/03 01:39:48;;;;;;;7.07;3.55;;;28.60;49.30;;;;;;4998683;28;20041;-69
2023/09/03 01:42:14;;;;;;;8.63;4.03;;;28.80;49.30;;;;;;5014957;28;20025;-68
2023/09/03 01:44:41;;;;;;;6.30;4.13;;;28.70;49.30;;;;;;5014926;28;20409;-69
2023/09/03 01:47:22;;;;;;;6.38;4.00;;;28.80;49.30;;;;;;5015090;28;20033;-68
2023/09/03 01:50:26;;;;;;;8.60;4.03;;;28.80;49.40;;;;;;5029588;28;20043;-69
2023/09/03 01:53:17;;;;;;;7.90;4.40;;;28.60;49.40;;;;;;5014734;28;20477;-69
2023/09/03 01:55:47;;;;;;;7.97;3.97;;;28.70;49.40;;;;;;4998726;28;20240;-69
2023/09/03 01:58:14;;;;;;;6.13;4.28;;;28.60;49.40;;;;;;4989836;28;20577;-69
2023/09/03 02:00:42;;;;;;;6.53;4.07;;;28.70;49.40;;;;;;4963063;28;20030;-69
2023/09/03 02:03:10;;;;;;;5.82;3.80;;;28.70;49.50;;;;;;4978814;28;20418;-69
2023/09/03 02:05:37;;;;;;;6.28;4.07;;;28.60;49.50;;;;;;4978914;28;20058;-69
2023/09/03 02:08:03;;;;;;;7.13;3.38;;;28.70;49.40;;;;;;4978838;28;20038;-68
2023/09/03 02:10:29;;;;;;;6.40;4.00;;;28.60;49.40;;;;;;4995086;28;20407;-69
2023/09/03 02:12:55;;;;;;;6.70;4.00;;;28.70;49.50;;;;;;4978641;28;20133;-70
2023/09/03 02:15:21;;;;;;;7.53;3.95;;;28.70;49.40;;;;;;4995255;28;20085;-69
2023/09/03 02:17:48;;;;;;;7.30;4.05;;;28.80;49.40;;;;;;4995129;28;20051;-69
2023/09/03 02:20:15;;;;;;;5.32;3.67;;;28.70;49.50;;;;;;4994954;28;20101;-69
2023/09/03 02:22:41;;;;;;;4.95;3.50;;;28.70;49.40;;;;;;4991193;28;20050;-69
2023/09/03 02:25:10;;;;;;;8.82;3.33;;;28.70;49.40;;;;;;4991821;28;20066;-69
2023/09/03 02:27:36;;;;;;;5.45;3.00;;;28.70;49.40;;;;;;4992223;28;20082;-69
2023/09/03 02:30:04;;;;;;;10.05;3.42;;;28.80;49.40;;;;;;5032220;28;20186;-67
2023/09/03 02:32:30;;;;;;;5.85;3.80;;;28.70;49.40;;;;;;5052266;28;20048;-69
2023/09/03 02:34:56;;;;;;;5.38;3.78;;;28.80;49.40;;;;;;5053499;28;20059;-69
2023/09/03 02:37:23;;;;;;;6.50;3.50;;;28.70;49.40;;;;;;5052279;28;20021;-69
2023/09/03 02:39:49;;;;;;;10.10;4.32;;;28.70;49.40;;;;;;5053824;28;20117;-68
2023/09/03 02:42:15;;;;;;;6.60;3.63;;;28.80;49.40;;;;;;5053142;28;20435;-69
2023/09/03 02:44:41;;;;;;;4.18;3.78;;;28.80;49.30;;;;;;5070821;28;20034;-69
2023/09/03 02:47:07;;;;;;;6.93;3.58;;;28.60;49.40;;;;;;5073230;28;20033;-69
2023/09/03 02:49:34;;;;;;;6.05;3.47;;;28.60;49.40;;;;;;5055501;28;20043;-69
2023/09/03 02:52:00;;;;;;;7.63;4.00;;;28.70;49.40;;;;;;5071942;28;20119;-69
2023/09/03 02:54:26;;;;;;;7.13;3.70;;;28.60;49.30;;;;;;5073223;28;20107;-68
2023/09/03 02:56:52;;;;;;;7.32;3.55;;;28.60;49.30;;;;;;5073159;28;20043;-69
2023/09/03 02:59:18;;;;;;;6.13;3.47;;;28.70;49.40;;;;;;5073311;28;20178;-69
2023/09/03 03:01:44;;;;;;;5.15;3.42;;;28.70;49.40;;;;;;5072053;28;20488;-69
2023/09/03 03:04:10;;;;;;;7.20;3.92;;;28.60;49.40;;;;;;5071488;28;20067;-69
2023/09/03 03:06:36;;;;;;;3.95;2.83;;;28.70;49.50;;;;;;5073297;28;20044;-69
2023/09/03 03:09:04;;;;;;;7.60;3.47;;;28.60;49.40;;;;;;5070140;28;20175;-69
2023/09/03 03:11:31;;;;;;;5.45;3.63;;;28.60;49.50;;;;;;5053830;28;20052;-69
2023/09/03 03:14:00;;;;;;;6.97;3.55;;;28.80;49.40;;;;;;5069984;28;20123;-69
2023/09/03 03:16:30;;;;;;;4.57;3.00;;;28.70;49.50;;;;;;5070478;28;20094;-69
2023/09/03 03:18:58;;;;;;;6.40;3.67;;;28.80;49.50;;;;;;5070276;28;20036;-69
2023/09/03 03:21:28;;;;;;;5.22;3.80;;;28.70;49.50;;;;;;5053602;28;20076;-69
2023/09/03 03:23:58;;;;;;;5.35;3.60;;;28.80;49.50;;;;;;5070111;28;20586;-69
2023/09/03 03:26:32;;;;;;;7.20;3.45;;;28.70;49.50;;;;;;5070218;28;20048;-69
2023/09/03 03:28:59;;;;;;;5.07;3.50;;;28.70;49.50;;;;;;5053358;28;20039;-69
2023/09/03 03:31:26;;;;;;;4.82;3.70;;;28.80;49.50;;;;;;5069982;28;20036;-69
2023/09/03 03:33:55;;;;;;;7.30;3.53;;;28.60;49.50;;;;;;5052865;28;20044;-69
2023/09/03 03:36:24;;;;;;;6.90;3.70;;;28.70;49.40;;;;;;5053410;28;20047;-68
2023/09/03 03:38:50;;;;;;;5.05;3.45;;;28.60;49.40;;;;;;5069861;28;20045;-69
2023/09/03 03:41:19;;;;;;;7.40;3.50;;;28.70;49.50;;;;;;5053109;28;20396;-70
2023/09/03 03:43:49;;;;;;;7.15;3.85;;;28.60;49.40;;;;;;5053083;28;20047;-69
2023/09/03 03:46:19;;;;;;;5.55;3.40;;;28.80;49.40;;;;;;5058699;28;20573;-70
2023/09/03 03:48:48;;;;;;;9.07;3.63;;;28.60;49.50;;;;;;5071053;28;20049;-69
2023/09/03 03:51:15;;;;;;;6.10;3.95;;;28.60;49.50;;;;;;5072003;28;20120;-69
2023/09/03 03:53:41;;;;;;;6.30;3.92;;;28.70;49.50;;;;;;5070545;28;20035;-69
2023/09/03 03:56:12;;;;;;;7.10;3.75;;;28.70;49.50;;;;;;5070685;28;20111;-69
2023/09/03 03:58:40;;;;;;;5.75;3.85;;;28.50;49.50;;;;;;5071885;28;20503;-69
2023/09/03 04:01:33;;;;;;;9.10;4.03;;;28.60;49.50;;;;;;5070516;28;20048;-69
2023/09/03 04:03:59;;;;;;;5.40;3.65;;;28.60;49.50;;;;;;5049169;28;20116;-69
2023/09/03 04:06:27;;;;;;;5.93;3.67;;;28.70;49.60;;;;;;5032671;28;20048;-69
2023/09/03 04:08:54;;;;;;;5.15;3.45;;;28.50;49.50;;;;;;5032638;28;20493;-69
2023/09/03 04:11:24;;;;;;;6.57;3.78;;;28.60;49.60;;;;;;5012907;28;20184;-69
2023/09/03 04:13:50;;;;;;;4.45;3.30;;;28.60;49.60;;;;;;5029391;28;20512;-69
2023/09/03 04:16:19;;;;;;;8.15;4.18;;;28.60;49.60;;;;;;5012877;28;20037;-69
2023/09/03 04:18:50;;;;;;;8.60;4.05;;;28.60;49.60;;;;;;5012980;28;20041;-69
2023/09/03 04:21:17;;;;;;;6.70;3.95;;;28.60;49.60;;;;;;5012766;28;20124;-69
2023/09/03 04:23:44;;;;;;;5.22;3.40;;;28.70;49.60;;;;;;5012729;28;20164;-69
2023/09/03 04:26:11;;;;;;;5.57;3.80;;;28.60;49.60;;;;;;5012637;28;20040;-69
2023/09/03 04:28:50;;;;;;;4.32;3.67;;;28.70;49.60;;;;;;5012773;28;20053;-70
2023/09/03 04:31:16;;;;;;;6.68;4.22;;;28.70;49.60;;;;;;5029045;28;20045;-69
2023/09/03 04:33:43;;;;;;;6.38;3.88;;;28.70;49.60;;;;;;5012057;28;20079;-69
2023/09/03 04:36:10;;;;;;;6.30;3.55;;;28.70;49.50;;;;;;5012726;28;20044;-68
2023/09/03 04:38:36;;;;;;;9.60;3.80;;;28.70;49.50;;;;;;5029106;28;20624;-69
2023/09/03 04:41:06;;;;;;;7.10;4.25;;;28.70;49.50;;;;;;5042599;28;20103;-70
2023/09/03 04:43:46;;;;;;;7.72;4.32;;;28.70;49.50;;;;;;5049609;28;20044;-69
2023/09/03 04:46:16;;;;;;;5.85;3.90;;;28.60;49.50;;;;;;5049223;28;20139;-70
2023/09/03 04:48:42;;;;;;;5.45;3.45;;;28.70;49.50;;;;;;5051247;28;20131;-68
2023/09/03 04:51:08;;;;;;;6.97;4.15;;;28.70;49.50;;;;;;5051703;28;20043;-69
2023/09/03 04:53:34;;;;;;;9.35;4.10;;;28.60;49.50;;;;;;5049607;28;20036;-68
2023/09/03 04:56:04;;;;;;;6.18;4.20;;;28.60;49.50;;;;;;5049883;28;20064;-69
2023/09/03 04:58:32;;;;;;;6.28;3.95;;;28.50;49.60;;;;;;5033341;28;20381;-69
2023/09/03 05:00:59;;;;;;;8.95;4.70;;;28.50;49.60;;;;;;5049867;28;20041;-69
2023/09/03 05:03:26;;;;;;;9.75;4.03;;;28.60;49.60;;;;;;5049595;28;20036;-70
2023/09/03 05:05:52;;;;;;;5.80;4.20;;;28.60;49.70;;;;;;5050970;28;20036;-69
2023/09/03 05:08:18;;;;;;;7.45;4.22;;;28.70;49.70;;;;;;5033080;28;20064;-69
2023/09/03 05:10:44;;;;;;;5.43;3.50;;;28.70;49.70;;;;;;5048429;28;20057;-69
2023/09/03 05:13:11;;;;;;;4.47;3.30;;;28.70;49.60;;;;;;5015106;28;20156;-70
2023/09/03 05:15:40;;;;;;;5.32;2.97;;;28.70;49.70;;;;;;5031803;28;20124;-69
2023/09/03 05:18:07;;;;;;;9.25;4.50;;;28.70;49.70;;;;;;5031925;28;20041;-69
2023/09/03 05:20:37;;;;;;;11.75;4.40;;;28.60;49.60;;;;;;5031732;28;20037;-69
2023/09/03 05:23:04;;;;;;;6.70;3.78;;;28.70;49.70;;;;;;5031814;28;20053;-69
2023/09/03 05:25:31;;;;;;;6.40;3.60;;;28.70;49.70;;;;;;5031476;28;20357;-69
2023/09/03 05:27:58;;;;;;;7.55;3.72;;;28.70;49.60;;;;;;5031759;28;20053;-69
2023/09/03 05:30:25;;;;;;;5.13;3.78;;;28.70;49.70;;;;;;5031611;28;20087;-69
2023/09/03 05:32:52;;;;;;;6.00;3.83;;;28.60;49.60;;;;;;5048398;28;20033;-69
2023/09/03 05:35:18;;;;;;;5.53;3.95;;;28.70;49.60;;;;;;5031374;28;20045;-69
2023/09/03 05:37:45;;;;;;;7.22;4.50;;;28.70;49.60;;;;;;5031595;28;20099;-69
2023/09/03 05:40:12;;;;;;;7.38;3.88;;;28.90;49.60;;;;;;5015150;28;20033;-69
2023/09/03 05:42:39;;;;;;;8.38;3.90;;;28.60;49.50;;;;;;5031652;28;20049;-69
2023/09/03 05:45:05;;;;;;;5.00;3.92;;;28.60;49.60;;;;;;5047931;28;20076;-69
2023/09/03 05:47:32;;;;;;;6.90;4.00;;;28.70;49.60;;;;;;5016439;28;20065;-68
2023/09/03 05:49:59;;;;;;;5.13;3.22;;;28.60;49.60;;;;;;5032806;28;20500;-70
2023/09/03 05:52:25;;;;;;;6.00;3.17;;;28.70;49.60;;;;;;5049248;28;20041;-69
2023/09/03 05:54:51;;;;;;;6.22;3.20;;;28.70;49.50;;;;;;5049225;28;20459;-69
2023/09/03 05:57:18;;;;;;;6.28;3.40;;;28.60;49.50;;;;;;5052071;28;20091;-69
2023/09/03 05:59:51;;;;;;;7.63;3.60;;;28.70;49.60;;;;;;5053181;28;20032;-69
2023/09/03 06:02:19;;;;;;;4.93;3.58;;;28.70;49.60;;;;;;5053084;28;20033;-69
2023/09/03 06:04:46;;;;;;;4.80;2.88;;;28.70;49.70;;;;;;5036223;28;20496;-69
2023/09/03 06:07:13;;;;;;;3.42;2.42;;;28.60;49.70;;;;;;5052812;28;20040;-69
2023/09/03 06:09:39;;;;;;;4.50;3.30;;;28.50;49.70;;;;;;5054111;28;20029;-69
2023/09/03 06:12:05;;;;;;;4.18;2.47;;;28.50;49.70;;;;;;5053920;28;20405;-69
2023/09/03 06:14:31;;;;;;;2.03;1.52;;;28.70;49.70;;;;;;5053474;28;20044;-69
2023/09/03 06:16:57;;;;;;;2.90;2.38;;;28.80;49.70;;;;;;5053688;28;20024;-69
2023/09/03 06:19:24;;;;;;;1.75;1.45;;;28.70;49.70;;;;;;5053643;28;20431;-69
2023/09/03 06:21:49;;;;;;;1.45;1.35;;;28.70;49.70;;;;;;5053744;28;20552;-69
2023/09/03 06:24:16;;;;;;;3.53;2.85;;;28.70;49.70;;;;;;5052393;28;20043;-69
2023/09/03 06:26:42;;;;;;;4.82;2.83;;;28.70;49.70;;;;;;5053839;28;20035;-69
2023/09/03 06:29:08;;;;;;;4.63;3.13;;;28.70;49.70;;;;;;5034800;28;20411;-69
2023/09/03 06:31:34;;;;;;;5.03;3.13;;;28.70;49.70;;;;;;5053621;28;20679;-69
2023/09/03 06:34:00;;;;;;;5.63;2.70;;;28.70;49.70;;;;;;5053611;28;20036;-69
2023/09/03 06:36:26;;;;;;;3.85;3.20;;;28.70;49.70;;;;;;5052274;28;20037;-69
2023/09/03 06:38:52;;;;;;;5.85;3.08;;;28.70;49.70;;;;;;5053433;28;20032;-69
2023/09/03 06:41:18;;;;;;;3.58;2.40;;;28.70;49.70;;;;;;5054303;28;20123;-69
2023/09/03 06:43:44;;;;;;;4.15;3.38;;;28.70;49.70;;;;;;5072181;28;20044;-69
2023/09/03 06:46:10;;;;;;;4.55;3.00;;;28.70;49.70;;;;;;5073467;28;20032;-69
2023/09/03 06:48:36;;;;;;;2.60;1.98;;;28.70;49.70;;;;;;5073320;28;20088;-69
2023/09/03 06:51:03;;;;;;;2.67;2.38;;;28.60;49.70;;;;;;5073318;28;20515;-68
2023/09/03 06:53:29;;;;;;;3.90;2.75;;;28.70;49.70;;;;;;5073425;28;20084;-69
2023/09/03 06:55:57;;;;;;;4.70;3.13;;;28.70;49.70;;;;;;5073052;28;20472;-69
2023/09/03 06:58:23;;;;;;;3.83;3.10;;;28.70;49.70;;;;;;5073400;28;20040;-70
2023/09/03 07:00:49;;;;;;;2.55;2.30;;;28.60;49.70;;;;;;5073205;28;20449;-69
2023/09/03 07:03:15;;;;;;;1.50;1.40;;;28.70;49.70;;;;;;5073289;28;20025;-69
2023/09/03 07:05:41;;;;;;;3.50;2.22;;;28.70;49.70;;;;;;5072752;28;20120;-69
2023/09/03 07:08:08;;;;;;;1.92;1.52;;;28.60;49.70;;;;;;5072483;28;20024;-69
2023/09/03 07:10:34;;;;;;;1.92;1.50;;;28.60;49.70;;;;;;5072954;28;20044;-69
2023/09/03 07:13:00;;;;;;;1.45;1.30;;;28.60;49.70;;;;;;5070546;28;20135;-69
2023/09/03 07:15:26;;;;;;;3.72;1.88;;;28.50;49.80;;;;;;5073143;28;20075;-69
2023/09/03 07:18:13;;;;;;;2.90;2.40;;;28.50;49.80;;;;;;5072957;28;20468;-69
2023/09/03 07:20:38;;;;;;;3.75;2.13;;;28.60;49.80;;;;;;5072658;28;20040;-69
2023/09/03 07:23:04;;;;;;;2.85;2.05;;;28.50;49.80;;;;;;5072630;28;20107;-69
2023/09/03 07:25:31;;;;;;;2.33;1.70;;;28.50;49.80;;;;;;5072626;28;20135;-69
2023/09/03 07:27:57;;;;;;;2.15;1.92;;;28.50;49.90;;;;;;5072798;28;20119;-70
2023/09/03 07:30:23;;;;;;;1.80;1.48;;;28.50;50.00;;;;;;5070399;28;20481;-69
2023/09/03 07:32:49;;;;;;;5.15;2.40;;;28.60;50.00;;;;;;5070249;28;20443;-69
2023/09/03 07:35:15;;;;;;;2.00;1.65;;;28.70;50.00;;;;;;5072293;28;20028;-69
2023/09/03 07:37:43;;;;;;;2.70;2.35;;;28.50;50.00;;;;;;5072527;28;20356;-68
2023/09/03 07:40:10;;;;;;;2.28;1.70;;;28.70;50.00;;;;;;5072083;28;20071;-69
2023/09/03 07:42:36;;;;;;;2.33;1.67;;;28.60;50.00;;;;;;5070024;28;20040;-68
2023/09/03 07:45:02;;;;;;;2.65;2.15;;;28.50;50.00;;;;;;5069546;28;20048;-70
2023/09/03 07:47:28;;;;;;;2.70;2.03;;;28.60;50.00;;;;;;5072105;28;20068;-69
2023/09/03 07:49:54;;;;;;;1.50;1.40;;;28.80;50.00;;;;;;5069693;28;20044;-69
2023/09/03 07:52:20;;;;;;;2.22;1.92;;;28.70;50.00;;;;;;5071889;28;20040;-69
2023/09/03 07:54:46;;;;;;;2.10;1.55;;;28.70;50.00;;;;;;5072022;28;20024;-70
2023/09/03 07:57:13;;;;;;;2.38;1.65;;;28.60;50.00;;;;;;5086601;28;20052;-69
2023/09/03 07:59:39;;;;;;;1.42;1.33;;;28.70;50.00;;;;;;5072053;28;20036;-69
2023/09/03 08:02:05;;;;;;;1.63;1.50;;;28.80;50.00;;;;;;5071825;28;20028;-69
2023/09/03 08:04:31;;;;;;;2.97;1.83;;;28.70;50.00;;;;;;5071589;28;20029;-70
2023/09/03 08:06:57;;;;;;;2.17;1.80;;;28.60;50.00;;;;;;5071851;28;20028;-69
2023/09/03 08:09:24;;;;;;;1.98;1.67;;;28.80;49.90;;;;;;5071752;28;20090;-69
2023/09/03 08:11:51;;;;;;;2.42;1.70;;;28.80;49.90;;;;;;5070317;28;20412;-70
2023/09/03 08:14:17;;;;;;;1.20;1.20;;;28.80;49.90;;;;;;5071764;28;20070;-69
2023/09/03 08:16:43;;;;;;;4.10;2.10;;;28.80;49.90;;;;;;5071665;28;20453;-70
2023/09/03 08:19:09;;;;;;;3.00;1.95;;;28.90;49.80;;;;;;5071057;28;20119;-69
2023/09/03 08:21:35;;;;;;;1.38;1.27;;;28.80;49.80;;;;;;5067747;28;20104;-70
2023/09/03 08:24:01;;;;;;;1.50;1.40;;;28.80;49.80;;;;;;5032326;28;20044;-69
2023/09/03 08:26:27;;;;;;;2.20;1.50;;;28.80;49.80;;;;;;5048966;28;20037;-69
2023/09/03 08:29:00;;;;;;;2.42;1.90;;;28.80;49.80;;;;;;5048967;28;20067;-69
2023/09/03 08:31:26;;;;;;;2.53;1.40;;;29.00;50.30;;;;;;5049133;28;20095;-70
2023/09/03 08:33:53;;;;;;;2.63;1.90;;;28.90;49.70;;;;;;5049018;28;20097;-69
2023/09/03 08:36:22;;;;;;;2.30;1.85;;;28.90;49.70;;;;;;5048864;28;20484;-69
2023/09/03 08:38:48;;;;;;;1.70;1.60;;;28.90;49.70;;;;;;5049028;28;20053;-69
2023/09/03 08:41:14;;;;;;;2.17;1.65;;;28.90;49.60;;;;;;5048852;28;20041;-70
2023/09/03 08:43:41;;;;;;;1.80;1.60;;;28.90;49.60;;;;;;5015876;28;20037;-69
2023/09/03 08:46:10;;;;;;;2.97;1.40;;;28.90;49.70;;;;;;5048723;28;20040;-69
2023/09/03 08:48:38;;;;;;;1.55;1.45;;;29.00;50.20;;;;;;5050051;28;20099;-68
2023/09/03 08:51:04;;;;;;;2.33;1.60;;;29.00;50.10;;;;;;5067560;28;20073;-69
2023/09/03 08:53:31;;;;;;;1.50;1.40;;;28.90;49.60;;;;;;5068867;28;20036;-69
2023/09/03 08:55:58;;;;;;;1.77;1.67;;;29.00;50.10;;;;;;5070502;28;20146;-69
2023/09/03 08:58:24;;;;;;;3.45;1.60;;;29.00;50.10;;;;;;5071230;28;20044;-70
2023/09/03 09:00:56;;;;;;;2.15;1.60;;;29.00;50.00;;;;;;5070997;28;20039;-70
2023/09/03 09:03:27;;;;;;;2.00;1.80;;;29.00;50.00;;;;;;5071005;28;20142;-69
2023/09/03 09:05:54;;;;;;;1.90;1.33;;;29.00;50.00;;;;;;5070808;28;20036;-70
2023/09/03 09:08:23;;;;;;;3.05;2.20;;;29.00;50.00;;;;;;5071211;28;20535;-68
2023/09/03 09:10:51;;;;;;;2.45;2.25;;;29.00;50.00;;;;;;5070803;28;20123;-68
2023/09/03 09:13:24;;;;;;;2.00;1.70;;;28.90;49.40;;;;;;5071025;28;20033;-69
2023/09/03 09:15:50;;;;;;;;;;;29.00;50.00;;;;;;5071221;28;20075;-69
2023/09/03 09:18:16;;;;;;;3.00;2.20;;;28.90;49.40;;;;;;5071052;28;19908;-67
2023/09/03 09:20:43;;;;;;;2.58;1.85;;;29.00;49.90;;;;;;5071036;28;20036;-69
2023/09/03 09:23:09;;;;;;;2.20;1.60;;;28.90;49.40;;;;;;5070797;28;20050;-70
2023/09/03 09:25:36;;;;;;;2.78;2.15;;;28.80;49.40;;;;;;5070708;28;20040;-69
2023/09/03 09:28:11;;;;;;;1.42;1.33;;;28.90;49.40;;;;;;5070918;28;20468;-69
2023/09/03 09:30:51;;;;;;;1.40;1.17;;;28.90;49.40;;;;;;5071287;28;20037;-70
2023/09/03 09:33:17;;;;;;;2.00;1.80;;;28.90;49.40;;;;;;5074963;28;20464;-70
2023/09/03 09:35:43;;;;;;;1.75;1.50;;;28.90;49.50;;;;;;5074750;28;20024;-69
2023/09/03 09:38:10;;;;;;;2.53;2.03;;;28.80;49.50;;;;;;5074690;28;20040;-69
2023/09/03 09:40:36;;;;;;;2.90;1.70;;;28.90;49.50;;;;;;5074826;28;20040;-70
2023/09/03 09:43:07;;;;;;;2.40;1.27;;;28.90;49.50;;;;;;5074727;28;20029;-70
2023/09/03 09:45:43;;;;;;;4.15;2.22;;;28.90;49.50;;;;;;5074594;28;20049;-69
2023/09/03 09:48:10;;;;;;;2.72;1.90;;;28.90;49.50;;;;;;5074859;28;20057;-70
2023/09/03 09:50:38;;;;;;;2.55;1.90;;;29.00;50.00;;;;;;5074596;28;20052;-69
2023/09/03 09:53:06;;;;;;;3.25;2.33;;;29.10;50.00;;;;;;5074337;28;20115;-69
2023/09/03 09:55:32;;;;;;;2.63;1.40;;;29.00;50.00;;;;;;5074343;28;20041;-70
2023/09/03 09:57:59;;;;;;;3.38;2.60;;;29.00;50.00;;;;;;5073260;28;20044;-69
2023/09/03 10:00:33;;;;;;;2.50;1.50;;;29.10;50.10;;;;;;5073075;28;20039;-69
2023/09/03 10:02:59;;;;;;;2.00;1.63;;;29.00;50.00;;;;;;5074250;28;20032;-69
2023/09/03 10:05:25;;;;;;;2.80;2.15;;;29.00;50.00;;;;;;5074183;28;20032;-69
2023/09/03 10:07:53;;;;;;;1.67;1.40;;;29.00;50.00;;;;;;5074116;28;20037;-69
2023/09/03 10:10:20;;;;;;;1.42;1.33;;;29.00;50.00;;;;;;5072611;28;20051;-69
2023/09/03 10:12:46;;;;;;;1.30;1.20;;;28.90;49.40;;;;;;5073887;28;20158;-69
2023/09/03 10:15:15;;;;;;;1.80;1.10;;;29.00;50.00;;;;;;5073588;28;20155;-70
2023/09/03 10:17:45;;;;;;;1.80;1.70;;;29.00;50.00;;;;;;5072777;28;20686;-69
2023/09/03 10:20:17;;;;;;;2.20;1.83;;;29.00;50.00;;;;;;5074025;28;20036;-71
2023/09/03 10:22:46;;;;;;;2.25;1.33;;;28.90;49.50;;;;;;5074202;28;20029;-69
2023/09/03 10:25:14;;;;;;;2.17;1.48;;;29.00;50.00;;;;;;5056427;28;20040;-69
2023/09/03 10:27:50;;;;;;;2.13;1.60;;;29.00;50.00;;;;;;5053873;28;20037;-69
2023/09/03 10:30:20;;;;;;;1.70;1.30;;;28.90;49.50;;;;;;5053702;28;20511;-69
2023/09/03 10:32:47;;;;;;;3.30;1.75;;;28.90;49.50;;;;;;5053412;28;20041;-70
2023/09/03 10:35:13;;;;;;;2.58;1.55;;;28.90;49.50;;;;;;5053618;28;20041;-69
2023/09/03 10:37:41;;;;;;;2.55;1.50;;;28.90;49.50;;;;;;5052143;28;20044;-70
2023/09/03 10:40:24;;;;;;;2.13;1.40;;;28.80;49.50;;;;;;5053419;28;20052;-70
2023/09/03 10:42:51;;;;;;;1.00;0.90;;;28.80;49.50;;;;;;5051150;28;20149;-69
2023/09/03 10:45:20;;;;;;;1.50;1.40;;;28.80;49.60;;;;;;5053196;28;20102;-69
2023/09/03 10:47:56;;;;;;;1.42;1.33;;;28.90;49.60;;;;;;5053188;28;20128;-69
2023/09/03 10:50:50;;;;;;;2.40;2.05;;;28.80;49.60;;;;;;5055812;28;20040;-69
2023/09/03 10:53:39;;;;;;;1.70;1.52;;;28.80;49.60;;;;;;5072064;28;20032;-69
2023/09/03 10:56:19;;;;;;;1.35;1.25;;;28.90;49.70;;;;;;5073127;28;20041;-69
2023/09/03 10:58:55;;;;;;;1.50;1.40;;;28.90;49.70;;;;;;5073208;28;20063;-69
2023/09/03 11:01:31;;;;;;;6.43;1.60;;;28.90;49.70;;;;;;5073175;28;20047;-69
2023/09/03 11:04:06;;;;;;;1.13;1.08;;;28.90;49.70;;;;;;5073230;28;20116;-69
2023/09/03 11:06:34;;;;;;;2.28;1.60;;;28.90;49.70;;;;;;5073157;28;20098;-69
2023/09/03 11:09:08;;;;;;;2.40;1.60;;;28.90;49.70;;;;;;5073120;28;20058;-69
2023/09/03 11:11:35;;;;;;;1.60;1.30;;;29.00;50.20;;;;;;5071847;28;20492;-69
2023/09/03 11:14:02;;;;;;;1.75;1.60;;;29.00;50.30;;;;;;5071612;28;20178;-69
2023/09/03 11:16:37;;;;;;;1.52;1.40;;;29.00;50.30;;;;;;5072601;28;20116;-69
2023/09/03 11:19:07;;;;;;;2.15;1.95;;;28.90;49.70;;;;;;5071707;28;20025;-69
2023/09/03 11:21:37;;;;;;;1.38;1.27;;;29.00;50.20;;;;;;5073220;28;20433;-69
2023/09/03 11:24:20;;;;;;;1.58;1.40;;;29.10;50.20;;;;;;5072755;28;20040;-69
2023/09/03 11:27:03;;;;;;;1.55;1.45;;;28.90;49.70;;;;;;5072532;28;20121;-69
2023/09/03 11:29:30;;;;;;;2.95;1.70;;;28.90;49.70;;;;;;5072606;28;20115;-69
2023/09/03 11:31:56;;;;;;;2.00;1.60;;;28.90;49.70;;;;;;5072860;28;20170;-69
2023/09/03 11:34:23;;;;;;;1.50;1.30;;;28.90;49.70;;;;;;5072409;28;20032;-69
2023/09/03 11:36:50;;;;;;;1.73;1.63;;;28.90;49.70;;;;;;5072414;28;20066;-69
2023/09/03 11:39:17;;;;;;;1.67;1.40;;;28.80;49.70;;;;;;5072382;28;20033;-68
2023/09/03 11:41:46;;;;;;;2.00;1.50;;;28.70;49.70;;;;;;5072880;28;20376;-69
2023/09/03 11:44:16;;;;;;;1.33;1.23;;;28.90;49.70;;;;;;5072277;28;20060;-69
2023/09/03 11:47:02;;;;;;;1.05;1.05;;;28.70;49.70;;;;;;5072406;28;20065;-69
2023/09/03 11:49:28;;;;;;;1.30;1.30;;;28.80;49.80;;;;;;5072254;28;20040;-69
2023/09/03 11:52:13;;;;;;;1.20;1.10;;;28.90;49.80;;;;;;5072189;28;20036;-69
2023/09/03 11:54:39;;;;;;;1.17;1.08;;;28.80;49.90;;;;;;5071991;28;20033;-69
2023/09/03 11:57:08;;;;;;;1.45;1.35;;;28.80;49.90;;;;;;5072140;28;20099;-69
2023/09/03 11:59:35;;;;;;;1.50;1.33;;;28.90;49.90;;;;;;5071923;28;20155;-69
2023/09/03 12:02:02;;;;;;;1.17;1.08;;;28.80;49.90;;;;;;5072054;28;20039;-69
2023/09/03 12:04:29;;;;;;;2.13;1.38;;;28.80;49.90;;;;;;5071785;28;20036;-69
2023/09/03 12:06:55;;;;;;;1.85;1.50;;;28.80;49.90;;;;;;5071995;28;20036;-69
2023/09/03 12:09:26;;;;;;;1.70;1.42;;;28.90;50.00;;;;;;5071975;28;20040;-69
2023/09/03 12:11:52;;;;;;;1.02;1.02;;;28.80;50.00;;;;;;5071888;28;20033;-69
2023/09/03 12:14:28;;;;;;;1.30;1.17;;;29.00;50.50;;;;;;5072150;28;20039;-69
2023/09/03 12:16:54;;;;;;;2.75;1.25;;;28.90;49.90;;;;;;5071604;28;20036;-69
2023/09/03 12:19:20;;;;;;;1.48;1.38;;;28.90;49.90;;;;;;5071939;28;20028;-69
2023/09/03 12:21:50;;;;;;;1.20;1.10;;;29.00;50.50;;;;;;5071702;28;20083;-69
2023/09/03 12:24:24;;;;;;;2.55;1.17;;;28.80;49.90;;;;;;5071746;28;20032;-69
2023/09/03 12:27:05;;;;;;;1.73;1.15;;;28.90;49.90;;;;;;5071609;28;20133;-69
2023/09/03 12:29:39;;;;;;;1.55;1.30;;;28.90;49.90;;;;;;5071405;28;20024;-69
2023/09/03 12:32:13;;;;;;;1.58;1.27;;;28.80;50.00;;;;;;5058529;28;20037;-69
2023/09/03 12:34:40;;;;;;;1.67;1.45;;;28.90;49.90;;;;;;5051579;28;20037;-69
2023/09/03 12:37:07;;;;;;;1.80;1.10;;;28.90;50.00;;;;;;5051227;28;20040;-70
2023/09/03 12:39:35;;;;;;;1.67;1.33;;;28.80;50.00;;;;;;5051344;28;20037;-69
2023/09/03 12:42:04;;;;;;;1.30;1.20;;;28.80;50.00;;;;;;5051346;28;20119;-69
2023/09/03 12:44:30;;;;;;;1.42;1.30;;;28.80;50.00;;;;;;5051411;28;20029;-69
2023/09/03 12:46:57;;;;;;;1.38;1.20;;;28.80;50.00;;;;;;5050955;28;20045;-69
2023/09/03 12:49:25;;;;;;;1.30;1.20;;;28.80;50.00;;;;;;5051281;28;20041;-68
2023/09/03 12:51:52;;;;;;;1.20;1.10;;;28.90;50.00;;;;;;5055368;28;20428;-69
2023/09/03 12:54:18;;;;;;;1.45;1.35;;;28.80;50.10;;;;;;5050289;28;20037;-69
2023/09/03 12:56:45;;;;;;;1.30;1.20;;;28.90;50.10;;;;;;5050995;28;20029;-69